sensor_id;sensor_type;location;lat;lon;timestamp;P1;durP1;ratioP1;P2;durP2;ratioP2
77158;SDS011;66129;45.890;13.714;2023-02-12T00:01:19;38.33;;;17.50;;
77158;SDS011;66129;45.890;13.714;2023-02-12T00:03:47;41.25;;;17.50;;
77158;SDS011;66129;45.890;13.714;2023-02-12T00:06:12;32.05;;;16.13;;
77158;SDS011;66129;45.890;13.714;2023-02-12T00:08:38;36.30;;;16.88;;
77158;SDS011;66129;45.890;13.714;2023-02-12T00:11:23;35.95;;;15.90;;
77158;SDS011;66129;45.890;13.714;2023-02-12T00:13:50;38.38;;;19.15;;
77158;SDS011;66129;45.890;13.714;2023-02-12T00:16:18;40.90;;;18.00;;
77158;SDS011;66129;45.890;13.714;2023-02-12T00:18:46;32.67;;;16.88;;
77158;SDS011;66129;45.890;13.714;2023-02-12T00:21:12;33.78;;;18.02;;
77158;SDS011;66129;45.890;13.714;2023-02-12T00:23:38;37.38;;;16.27;;
77158;SDS011;66129;45.890;13.714;2023-02-12T00:26:12;31.42;;;16.27;;
77158;SDS011;66129;45.890;13.714;2023-02-12T00:28:39;30.80;;;15.82;;
77158;SDS011;66129;45.890;13.714;2023-02-12T00:31:08;37.30;;;16.92;;
77158;SDS011;66129;45.890;13.714;2023-02-12T00:33:36;29.83;;;16.02;;
77158;SDS011;66129;45.890;13.714;2023-02-12T00:36:02;30.17;;;15.40;;
77158;SDS011;66129;45.890;13.714;2023-02-12T00:38:28;57.05;;;22.70;;
77158;SDS011;66129;45.890;13.714;2023-02-12T00:40:54;64.40;;;23.10;;
77158;SDS011;66129;45.890;13.714;2023-02-12T00:43:19;74.38;;;28.60;;
77158;SDS011;66129;45.890;13.714;2023-02-12T00:45:45;45.60;;;20.58;;
77158;SDS011;66129;45.890;13.714;2023-02-12T00:48:11;41.85;;;19.65;;
77158;SDS011;66129;45.890;13.714;2023-02-12T00:50:37;38.60;;;18.33;;
77158;SDS011;66129;45.890;13.714;2023-02-12T00:53:05;34.83;;;18.10;;
77158;SDS011;66129;45.890;13.714;2023-02-12T00:55:31;33.17;;;15.57;;
77158;SDS011;66129;45.890;13.714;2023-02-12T00:57:57;33.33;;;15.35;;
77158;SDS011;66129;45.890;13.714;2023-02-12T01:00:23;31.05;;;15.93;;
77158;SDS011;66129;45.890;13.714;2023-02-12T01:02:49;30.50;;;14.48;;
77158;SDS011;66129;45.890;13.714;2023-02-12T01:05:14;33.40;;;15.02;;
77158;SDS011;66129;45.890;13.714;2023-02-12T01:07:40;29.23;;;14.80;;
77158;SDS011;66129;45.890;13.714;2023-02-12T01:10:06;32.83;;;15.05;;
77158;SDS011;66129;45.890;13.714;2023-02-12T01:12:32;28.25;;;15.13;;
77158;SDS011;66129;45.890;13.714;2023-02-12T01:14:58;26.58;;;13.45;;
77158;SDS011;66129;45.890;13.714;2023-02-12T01:17:24;29.65;;;14.20;;
77158;SDS011;66129;45.890;13.714;2023-02-12T01:19:49;29.13;;;13.80;;
77158;SDS011;66129;45.890;13.714;2023-02-12T01:22:15;24.48;;;13.60;;
77158;SDS011;66129;45.890;13.714;2023-02-12T01:24:41;28.27;;;14.55;;
77158;SDS011;66129;45.890;13.714;2023-02-12T01:27:06;28.77;;;13.73;;
77158;SDS011;66129;45.890;13.714;2023-02-12T01:29:32;27.23;;;14.88;;
77158;SDS011;66129;45.890;13.714;2023-02-12T01:31:57;27.33;;;14.88;;
77158;SDS011;66129;45.890;13.714;2023-02-12T01:34:23;31.67;;;14.63;;
77158;SDS011;66129;45.890;13.714;2023-02-12T01:36:48;29.92;;;15.05;;
77158;SDS011;66129;45.890;13.714;2023-02-12T01:39:14;35.55;;;15.60;;
77158;SDS011;66129;45.890;13.714;2023-02-12T01:41:41;28.10;;;14.07;;
77158;SDS011;66129;45.890;13.714;2023-02-12T01:44:13;29.83;;;14.63;;
77158;SDS011;66129;45.890;13.714;2023-02-12T01:46:59;26.15;;;13.32;;
77158;SDS011;66129;45.890;13.714;2023-02-12T01:49:34;26.08;;;13.57;;
77158;SDS011;66129;45.890;13.714;2023-02-12T01:54:37;24.30;;;12.25;;
77158;SDS011;66129;45.890;13.714;2023-02-12T01:57:05;22.90;;;13.07;;
77158;SDS011;66129;45.890;13.714;2023-02-12T01:59:31;32.63;;;14.35;;
77158;SDS011;66129;45.890;13.714;2023-02-12T02:01:59;28.70;;;13.15;;
77158;SDS011;66129;45.890;13.714;2023-02-12T02:04:28;33.08;;;16.05;;
77158;SDS011;66129;45.890;13.714;2023-02-12T02:07:00;39.60;;;15.65;;
77158;SDS011;66129;45.890;13.714;2023-02-12T02:09:30;41.00;;;17.17;;
77158;SDS011;66129;45.890;13.714;2023-02-12T02:11:59;43.13;;;18.52;;
77158;SDS011;66129;45.890;13.714;2023-02-12T02:14:43;33.75;;;16.05;;
77158;SDS011;66129;45.890;13.714;2023-02-12T02:23:01;39.05;;;17.40;;
77158;SDS011;66129;45.890;13.714;2023-02-12T02:31:21;34.88;;;15.80;;
77158;SDS011;66129;45.890;13.714;2023-02-12T02:34:02;40.90;;;19.25;;
77158;SDS011;66129;45.890;13.714;2023-02-12T02:39:11;36.58;;;16.15;;
77158;SDS011;66129;45.890;13.714;2023-02-12T02:41:46;27.45;;;14.52;;
77158;SDS011;66129;45.890;13.714;2023-02-12T02:44:29;30.30;;;16.00;;
77158;SDS011;66129;45.890;13.714;2023-02-12T02:47:00;32.10;;;16.20;;
77158;SDS011;66129;45.890;13.714;2023-02-12T02:49:30;36.83;;;16.88;;
77158;SDS011;66129;45.890;13.714;2023-02-12T02:52:05;34.15;;;16.75;;
77158;SDS011;66129;45.890;13.714;2023-02-12T02:54:38;29.33;;;14.85;;
77158;SDS011;66129;45.890;13.714;2023-02-12T02:57:12;36.45;;;17.80;;
77158;SDS011;66129;45.890;13.714;2023-02-12T02:59:44;29.48;;;16.05;;
77158;SDS011;66129;45.890;13.714;2023-02-12T03:02:15;37.65;;;17.17;;
77158;SDS011;66129;45.890;13.714;2023-02-12T03:05:08;34.28;;;16.40;;
77158;SDS011;66129;45.890;13.714;2023-02-12T03:10:38;37.92;;;16.77;;
77158;SDS011;66129;45.890;13.714;2023-02-12T03:13:09;24.65;;;14.40;;
77158;SDS011;66129;45.890;13.714;2023-02-12T03:15:46;28.17;;;14.07;;
77158;SDS011;66129;45.890;13.714;2023-02-12T03:18:42;30.50;;;15.18;;
77158;SDS011;66129;45.890;13.714;2023-02-12T03:21:14;32.65;;;15.40;;
77158;SDS011;66129;45.890;13.714;2023-02-12T03:23:47;28.33;;;14.65;;
77158;SDS011;66129;45.890;13.714;2023-02-12T03:26:41;27.98;;;14.23;;
77158;SDS011;66129;45.890;13.714;2023-02-12T03:29:10;27.00;;;14.23;;
77158;SDS011;66129;45.890;13.714;2023-02-12T03:34:33;30.50;;;14.63;;
77158;SDS011;66129;45.890;13.714;2023-02-12T03:37:32;24.85;;;12.82;;
77158;SDS011;66129;45.890;13.714;2023-02-12T03:43:06;27.63;;;14.32;;
77158;SDS011;66129;45.890;13.714;2023-02-12T03:45:51;29.00;;;14.43;;
77158;SDS011;66129;45.890;13.714;2023-02-12T03:54:05;28.90;;;13.45;;
77158;SDS011;66129;45.890;13.714;2023-02-12T03:59:05;26.58;;;13.75;;
77158;SDS011;66129;45.890;13.714;2023-02-12T04:01:32;26.45;;;13.75;;
77158;SDS011;66129;45.890;13.714;2023-02-12T04:04:02;26.02;;;12.38;;
77158;SDS011;66129;45.890;13.714;2023-02-12T04:06:29;30.70;;;12.68;;
77158;SDS011;66129;45.890;13.714;2023-02-12T04:08:56;28.65;;;12.82;;
77158;SDS011;66129;45.890;13.714;2023-02-12T04:16:47;25.30;;;12.43;;
77158;SDS011;66129;45.890;13.714;2023-02-12T04:22:29;26.88;;;11.38;;
77158;SDS011;66129;45.890;13.714;2023-02-12T04:34:11;32.90;;;12.85;;
77158;SDS011;66129;45.890;13.714;2023-02-12T04:36:47;26.65;;;12.57;;
77158;SDS011;66129;45.890;13.714;2023-02-12T04:39:27;25.08;;;13.32;;
77158;SDS011;66129;45.890;13.714;2023-02-12T04:41:58;23.45;;;12.55;;
77158;SDS011;66129;45.890;13.714;2023-02-12T04:44:27;26.60;;;12.60;;
77158;SDS011;66129;45.890;13.714;2023-02-12T04:46:55;25.55;;;13.18;;
77158;SDS011;66129;45.890;13.714;2023-02-12T04:49:21;22.80;;;11.35;;
77158;SDS011;66129;45.890;13.714;2023-02-12T04:51:48;24.52;;;11.45;;
77158;SDS011;66129;45.890;13.714;2023-02-12T04:54:15;24.23;;;11.93;;
77158;SDS011;66129;45.890;13.714;2023-02-12T04:56:42;23.48;;;12.32;;
77158;SDS011;66129;45.890;13.714;2023-02-12T04:59:08;23.33;;;13.32;;
77158;SDS011;66129;45.890;13.714;2023-02-12T05:01:34;25.13;;;11.27;;
77158;SDS011;66129;45.890;13.714;2023-02-12T05:04:05;22.20;;;11.30;;
77158;SDS011;66129;45.890;13.714;2023-02-12T05:06:35;19.38;;;10.32;;
77158;SDS011;66129;45.890;13.714;2023-02-12T05:09:02;26.25;;;12.25;;
77158;SDS011;66129;45.890;13.714;2023-02-12T05:11:28;20.90;;;10.98;;
77158;SDS011;66129;45.890;13.714;2023-02-12T05:13:54;29.15;;;13.40;;
77158;SDS011;66129;45.890;13.714;2023-02-12T05:16:20;22.90;;;12.23;;
77158;SDS011;66129;45.890;13.714;2023-02-12T05:18:45;25.45;;;13.13;;
77158;SDS011;66129;45.890;13.714;2023-02-12T05:21:11;26.85;;;12.90;;
77158;SDS011;66129;45.890;13.714;2023-02-12T05:23:38;21.88;;;11.50;;
77158;SDS011;66129;45.890;13.714;2023-02-12T05:26:11;23.55;;;11.98;;
77158;SDS011;66129;45.890;13.714;2023-02-12T05:28:39;14.80;;;8.82;;
77158;SDS011;66129;45.890;13.714;2023-02-12T05:31:06;23.63;;;12.45;;
77158;SDS011;66129;45.890;13.714;2023-02-12T05:33:33;21.88;;;10.20;;
77158;SDS011;66129;45.890;13.714;2023-02-12T05:36:08;22.08;;;11.25;;
77158;SDS011;66129;45.890;13.714;2023-02-12T05:38:36;19.38;;;11.18;;
77158;SDS011;66129;45.890;13.714;2023-02-12T05:41:08;19.92;;;9.98;;
77158;SDS011;66129;45.890;13.714;2023-02-12T05:43:35;18.33;;;10.85;;
77158;SDS011;66129;45.890;13.714;2023-02-12T05:46:02;22.38;;;10.00;;
77158;SDS011;66129;45.890;13.714;2023-02-12T05:48:29;25.23;;;10.80;;
77158;SDS011;66129;45.890;13.714;2023-02-12T05:51:06;21.75;;;10.45;;
77158;SDS011;66129;45.890;13.714;2023-02-12T05:53:33;22.77;;;11.40;;
77158;SDS011;66129;45.890;13.714;2023-02-12T05:56:13;26.10;;;13.07;;
77158;SDS011;66129;45.890;13.714;2023-02-12T05:58:47;36.70;;;23.15;;
77158;SDS011;66129;45.890;13.714;2023-02-12T06:01:18;37.88;;;19.48;;
77158;SDS011;66129;45.890;13.714;2023-02-12T06:03:49;30.50;;;15.48;;
77158;SDS011;66129;45.890;13.714;2023-02-12T06:06:14;52.60;;;24.83;;
77158;SDS011;66129;45.890;13.714;2023-02-12T06:08:40;46.63;;;24.02;;
77158;SDS011;66129;45.890;13.714;2023-02-12T06:11:07;30.92;;;16.90;;
77158;SDS011;66129;45.890;13.714;2023-02-12T06:13:45;47.92;;;25.00;;
77158;SDS011;66129;45.890;13.714;2023-02-12T06:16:16;43.90;;;23.10;;
77158;SDS011;66129;45.890;13.714;2023-02-12T06:18:47;29.35;;;14.77;;
77158;SDS011;66129;45.890;13.714;2023-02-12T06:21:16;25.70;;;12.90;;
77158;SDS011;66129;45.890;13.714;2023-02-12T06:23:50;29.55;;;13.63;;
77158;SDS011;66129;45.890;13.714;2023-02-12T06:26:31;24.42;;;13.35;;
77158;SDS011;66129;45.890;13.714;2023-02-12T06:28:57;31.42;;;14.10;;
77158;SDS011;66129;45.890;13.714;2023-02-12T06:31:26;32.13;;;15.55;;
77158;SDS011;66129;45.890;13.714;2023-02-12T06:33:54;28.48;;;13.93;;
77158;SDS011;66129;45.890;13.714;2023-02-12T06:36:21;29.38;;;13.38;;
77158;SDS011;66129;45.890;13.714;2023-02-12T06:38:50;28.33;;;13.82;;
77158;SDS011;66129;45.890;13.714;2023-02-12T06:41:16;30.42;;;15.50;;
77158;SDS011;66129;45.890;13.714;2023-02-12T06:43:42;33.97;;;16.92;;
77158;SDS011;66129;45.890;13.714;2023-02-12T06:46:08;30.00;;;15.50;;
77158;SDS011;66129;45.890;13.714;2023-02-12T06:48:33;29.60;;;14.73;;
77158;SDS011;66129;45.890;13.714;2023-02-12T06:51:06;32.75;;;17.05;;
77158;SDS011;66129;45.890;13.714;2023-02-12T06:53:37;29.17;;;17.50;;
77158;SDS011;66129;45.890;13.714;2023-02-12T06:56:03;41.90;;;19.38;;
77158;SDS011;66129;45.890;13.714;2023-02-12T06:58:30;33.25;;;16.50;;
77158;SDS011;66129;45.890;13.714;2023-02-12T07:01:03;34.88;;;19.25;;
77158;SDS011;66129;45.890;13.714;2023-02-12T07:03:42;33.30;;;17.75;;
77158;SDS011;66129;45.890;13.714;2023-02-12T07:06:09;37.05;;;19.42;;
77158;SDS011;66129;45.890;13.714;2023-02-12T07:08:35;42.53;;;19.45;;
77158;SDS011;66129;45.890;13.714;2023-02-12T07:11:01;37.03;;;20.27;;
77158;SDS011;66129;45.890;13.714;2023-02-12T07:13:27;37.63;;;20.30;;
77158;SDS011;66129;45.890;13.714;2023-02-12T07:15:52;51.00;;;24.67;;
77158;SDS011;66129;45.890;13.714;2023-02-12T07:18:18;61.58;;;30.63;;
77158;SDS011;66129;45.890;13.714;2023-02-12T07:21:04;61.72;;;28.05;;
77158;SDS011;66129;45.890;13.714;2023-02-12T07:23:33;85.85;;;36.40;;
77158;SDS011;66129;45.890;13.714;2023-02-12T07:26:10;35.08;;;20.20;;
77158;SDS011;66129;45.890;13.714;2023-02-12T07:28:37;38.65;;;19.50;;
77158;SDS011;66129;45.890;13.714;2023-02-12T07:31:17;41.22;;;21.17;;
77158;SDS011;66129;45.890;13.714;2023-02-12T07:33:54;49.67;;;23.05;;
77158;SDS011;66129;45.890;13.714;2023-02-12T07:36:21;45.45;;;21.58;;
77158;SDS011;66129;45.890;13.714;2023-02-12T07:38:48;31.10;;;17.75;;
77158;SDS011;66129;45.890;13.714;2023-02-12T07:43:57;25.80;;;13.25;;
77158;SDS011;66129;45.890;13.714;2023-02-12T07:46:55;24.48;;;13.00;;
77158;SDS011;66129;45.890;13.714;2023-02-12T07:49:22;28.83;;;12.68;;
77158;SDS011;66129;45.890;13.714;2023-02-12T07:51:48;25.27;;;13.05;;
77158;SDS011;66129;45.890;13.714;2023-02-12T07:54:14;21.38;;;11.98;;
77158;SDS011;66129;45.890;13.714;2023-02-12T07:56:41;26.00;;;12.65;;
77158;SDS011;66129;45.890;13.714;2023-02-12T07:59:16;26.80;;;14.05;;
77158;SDS011;66129;45.890;13.714;2023-02-12T08:01:46;21.45;;;11.48;;
77158;SDS011;66129;45.890;13.714;2023-02-12T08:04:15;24.33;;;13.27;;
77158;SDS011;66129;45.890;13.714;2023-02-12T08:06:49;27.15;;;14.27;;
77158;SDS011;66129;45.890;13.714;2023-02-12T08:09:22;30.30;;;15.57;;
77158;SDS011;66129;45.890;13.714;2023-02-12T08:11:54;29.90;;;15.35;;
77158;SDS011;66129;45.890;13.714;2023-02-12T08:14:23;23.83;;;12.38;;
77158;SDS011;66129;45.890;13.714;2023-02-12T08:16:49;25.38;;;14.05;;
77158;SDS011;66129;45.890;13.714;2023-02-12T08:19:15;26.40;;;13.77;;
77158;SDS011;66129;45.890;13.714;2023-02-12T08:21:44;25.08;;;13.52;;
77158;SDS011;66129;45.890;13.714;2023-02-12T08:24:33;25.65;;;14.70;;
77158;SDS011;66129;45.890;13.714;2023-02-12T08:26:58;27.27;;;14.45;;
77158;SDS011;66129;45.890;13.714;2023-02-12T08:29:25;24.33;;;13.98;;
77158;SDS011;66129;45.890;13.714;2023-02-12T08:31:57;26.75;;;14.07;;
77158;SDS011;66129;45.890;13.714;2023-02-12T08:34:25;26.90;;;14.80;;
77158;SDS011;66129;45.890;13.714;2023-02-12T08:36:57;21.58;;;13.00;;
77158;SDS011;66129;45.890;13.714;2023-02-12T08:39:38;26.35;;;16.27;;
77158;SDS011;66129;45.890;13.714;2023-02-12T08:42:32;30.00;;;15.57;;
77158;SDS011;66129;45.890;13.714;2023-02-12T08:45:07;33.03;;;18.27;;
77158;SDS011;66129;45.890;13.714;2023-02-12T08:47:36;22.00;;;11.80;;
77158;SDS011;66129;45.890;13.714;2023-02-12T08:50:02;19.23;;;11.88;;
77158;SDS011;66129;45.890;13.714;2023-02-12T08:52:33;18.60;;;11.38;;
77158;SDS011;66129;45.890;13.714;2023-02-12T08:54:59;22.30;;;11.93;;
77158;SDS011;66129;45.890;13.714;2023-02-12T08:57:52;30.98;;;16.10;;
77158;SDS011;66129;45.890;13.714;2023-02-12T09:04:07;29.30;;;14.15;;
77158;SDS011;66129;45.890;13.714;2023-02-12T09:07:09;26.08;;;13.70;;
77158;SDS011;66129;45.890;13.714;2023-02-12T09:17:02;21.45;;;12.48;;
77158;SDS011;66129;45.890;13.714;2023-02-12T09:22:52;18.80;;;10.18;;
77158;SDS011;66129;45.890;13.714;2023-02-12T09:26:08;19.45;;;10.40;;
77158;SDS011;66129;45.890;13.714;2023-02-12T09:29:07;41.97;;;19.50;;
77158;SDS011;66129;45.890;13.714;2023-02-12T09:31:43;35.67;;;18.35;;
77158;SDS011;66129;45.890;13.714;2023-02-12T09:34:48;22.60;;;12.55;;
77158;SDS011;66129;45.890;13.714;2023-02-12T09:37:32;23.23;;;13.65;;
77158;SDS011;66129;45.890;13.714;2023-02-12T09:40:01;30.20;;;15.35;;
77158;SDS011;66129;45.890;13.714;2023-02-12T09:42:42;29.67;;;15.00;;
77158;SDS011;66129;45.890;13.714;2023-02-12T09:45:34;28.30;;;14.73;;
77158;SDS011;66129;45.890;13.714;2023-02-12T09:50:41;30.35;;;13.55;;
77158;SDS011;66129;45.890;13.714;2023-02-12T09:53:34;21.30;;;11.98;;
77158;SDS011;66129;45.890;13.714;2023-02-12T09:56:25;18.77;;;9.75;;
77158;SDS011;66129;45.890;13.714;2023-02-12T09:59:14;31.60;;;15.07;;
77158;SDS011;66129;45.890;13.714;2023-02-12T10:02:25;22.58;;;12.73;;
77158;SDS011;66129;45.890;13.714;2023-02-12T10:05:00;41.97;;;18.63;;
77158;SDS011;66129;45.890;13.714;2023-02-12T10:30:50;20.25;;;11.50;;
77158;SDS011;66129;45.890;13.714;2023-02-12T10:37:04;18.65;;;11.15;;
77158;SDS011;66129;45.890;13.714;2023-02-12T10:46:35;24.45;;;14.45;;
77158;SDS011;66129;45.890;13.714;2023-02-12T10:56:47;18.55;;;11.93;;
77158;SDS011;66129;45.890;13.714;2023-02-12T10:59:27;19.50;;;11.77;;
77158;SDS011;66129;45.890;13.714;2023-02-12T11:02:16;19.60;;;13.43;;
77158;SDS011;66129;45.890;13.714;2023-02-12T11:04:48;19.70;;;12.65;;
77158;SDS011;66129;45.890;13.714;2023-02-12T11:07:14;21.35;;;13.30;;
77158;SDS011;66129;45.890;13.714;2023-02-12T11:09:44;19.95;;;13.18;;
77158;SDS011;66129;45.890;13.714;2023-02-12T11:17:41;11.90;;;7.85;;
77158;SDS011;66129;45.890;13.714;2023-02-12T11:23:23;13.43;;;7.85;;
77158;SDS011;66129;45.890;13.714;2023-02-12T11:25:31;17.70;;;12.10;;
77158;SDS011;66129;45.890;13.714;2023-02-12T11:28:19;18.15;;;10.85;;
77158;SDS011;66129;45.890;13.714;2023-02-12T11:30:49;15.02;;;9.25;;
77158;SDS011;66129;45.890;13.714;2023-02-12T11:33:24;14.55;;;8.88;;
77158;SDS011;66129;45.890;13.714;2023-02-12T11:36:26;13.10;;;6.65;;
77158;SDS011;66129;45.890;13.714;2023-02-12T11:38:54;14.48;;;9.65;;
77158;SDS011;66129;45.890;13.714;2023-02-12T11:41:48;11.95;;;7.32;;
77158;SDS011;66129;45.890;13.714;2023-02-12T11:44:23;11.52;;;6.90;;
77158;SDS011;66129;45.890;13.714;2023-02-12T11:47:27;9.30;;;5.75;;
77158;SDS011;66129;45.890;13.714;2023-02-12T11:50:02;8.27;;;5.68;;
77158;SDS011;66129;45.890;13.714;2023-02-12T11:52:49;10.65;;;6.47;;
77158;SDS011;66129;45.890;13.714;2023-02-12T11:55:31;11.23;;;6.45;;
77158;SDS011;66129;45.890;13.714;2023-02-12T11:58:20;8.77;;;5.30;;
77158;SDS011;66129;45.890;13.714;2023-02-12T12:09:48;9.90;;;4.93;;
77158;SDS011;66129;45.890;13.714;2023-02-12T12:12:44;8.52;;;4.38;;
77158;SDS011;66129;45.890;13.714;2023-02-12T12:18:44;5.70;;;3.67;;
77158;SDS011;66129;45.890;13.714;2023-02-12T12:33:01;5.72;;;3.80;;
77158;SDS011;66129;45.890;13.714;2023-02-12T12:41:49;4.65;;;3.00;;
77158;SDS011;66129;45.890;13.714;2023-02-12T13:07:38;5.68;;;4.05;;
77158;SDS011;66129;45.890;13.714;2023-02-12T13:13:47;6.50;;;3.67;;
77158;SDS011;66129;45.890;13.714;2023-02-12T13:22:54;7.55;;;4.63;;
77158;SDS011;66129;45.890;13.714;2023-02-12T13:38:06;5.22;;;3.58;;
77158;SDS011;66129;45.890;13.714;2023-02-12T13:41:17;5.82;;;3.50;;
77158;SDS011;66129;45.890;13.714;2023-02-12T13:57:01;6.38;;;3.05;;
77158;SDS011;66129;45.890;13.714;2023-02-12T14:00:03;9.25;;;4.68;;
77158;SDS011;66129;45.890;13.714;2023-02-12T14:05:15;7.57;;;4.18;;
77158;SDS011;66129;45.890;13.714;2023-02-12T14:07:58;5.18;;;3.53;;
77158;SDS011;66129;45.890;13.714;2023-02-12T14:10:28;4.90;;;3.22;;
77158;SDS011;66129;45.890;13.714;2023-02-12T14:12:58;6.28;;;3.90;;
77158;SDS011;66129;45.890;13.714;2023-02-12T14:15:34;9.30;;;5.45;;
77158;SDS011;66129;45.890;13.714;2023-02-12T14:21:34;5.95;;;4.15;;
77158;SDS011;66129;45.890;13.714;2023-02-12T14:23:41;7.03;;;5.43;;
77158;SDS011;66129;45.890;13.714;2023-02-12T14:26:19;5.95;;;3.70;;
77158;SDS011;66129;45.890;13.714;2023-02-12T14:28:51;8.52;;;5.07;;
77158;SDS011;66129;45.890;13.714;2023-02-12T14:36:41;8.18;;;5.35;;
77158;SDS011;66129;45.890;13.714;2023-02-12T14:41:45;6.47;;;4.65;;
77158;SDS011;66129;45.890;13.714;2023-02-12T14:46:58;7.20;;;4.05;;
77158;SDS011;66129;45.890;13.714;2023-02-12T14:49:46;8.25;;;5.22;;
77158;SDS011;66129;45.890;13.714;2023-02-12T14:52:18;7.50;;;3.97;;
77158;SDS011;66129;45.890;13.714;2023-02-12T14:54:48;7.40;;;5.57;;
77158;SDS011;66129;45.890;13.714;2023-02-12T14:57:40;7.03;;;5.10;;
77158;SDS011;66129;45.890;13.714;2023-02-12T15:00:19;6.57;;;4.20;;
77158;SDS011;66129;45.890;13.714;2023-02-12T15:08:25;8.93;;;4.78;;
77158;SDS011;66129;45.890;13.714;2023-02-12T15:10:58;10.40;;;5.45;;
77158;SDS011;66129;45.890;13.714;2023-02-12T15:13:29;7.95;;;5.30;;
77158;SDS011;66129;45.890;13.714;2023-02-12T15:18:49;7.10;;;3.95;;
77158;SDS011;66129;45.890;13.714;2023-02-12T15:21:25;5.55;;;3.47;;
77158;SDS011;66129;45.890;13.714;2023-02-12T15:26:34;13.70;;;7.40;;
77158;SDS011;66129;45.890;13.714;2023-02-12T15:31:52;7.60;;;4.90;;
77158;SDS011;66129;45.890;13.714;2023-02-12T15:34:23;10.10;;;5.38;;
77158;SDS011;66129;45.890;13.714;2023-02-12T15:36:57;9.68;;;5.50;;
77158;SDS011;66129;45.890;13.714;2023-02-12T15:51:48;13.63;;;9.93;;
77158;SDS011;66129;45.890;13.714;2023-02-12T15:54:19;15.23;;;7.97;;
77158;SDS011;66129;45.890;13.714;2023-02-12T15:56:48;9.75;;;5.75;;
77158;SDS011;66129;45.890;13.714;2023-02-12T15:59:24;10.20;;;6.47;;
77158;SDS011;66129;45.890;13.714;2023-02-12T16:01:57;41.00;;;19.85;;
77158;SDS011;66129;45.890;13.714;2023-02-12T16:04:46;9.65;;;5.95;;
77158;SDS011;66129;45.890;13.714;2023-02-12T16:07:15;25.65;;;21.90;;
77158;SDS011;66129;45.890;13.714;2023-02-12T16:09:43;14.75;;;12.98;;
77158;SDS011;66129;45.890;13.714;2023-02-12T16:12:14;24.83;;;16.17;;
77158;SDS011;66129;45.890;13.714;2023-02-12T16:18:24;11.63;;;8.02;;
77158;SDS011;66129;45.890;13.714;2023-02-12T16:37:40;10.10;;;5.50;;
77158;SDS011;66129;45.890;13.714;2023-02-12T16:41:22;11.00;;;5.70;;
77158;SDS011;66129;45.890;13.714;2023-02-12T16:58:23;14.57;;;9.05;;
77158;SDS011;66129;45.890;13.714;2023-02-12T17:01:31;23.80;;;10.93;;
77158;SDS011;66129;45.890;13.714;2023-02-12T17:04:30;16.92;;;9.50;;
77158;SDS011;66129;45.890;13.714;2023-02-12T17:06:56;16.17;;;8.30;;
77158;SDS011;66129;45.890;13.714;2023-02-12T17:09:22;12.88;;;7.13;;
77158;SDS011;66129;45.890;13.714;2023-02-12T17:11:48;13.55;;;8.10;;
77158;SDS011;66129;45.890;13.714;2023-02-12T17:14:17;13.07;;;6.68;;
77158;SDS011;66129;45.890;13.714;2023-02-12T17:16:43;13.48;;;8.15;;
77158;SDS011;66129;45.890;13.714;2023-02-12T17:19:10;13.75;;;7.30;;
77158;SDS011;66129;45.890;13.714;2023-02-12T17:21:37;17.63;;;9.27;;
77158;SDS011;66129;45.890;13.714;2023-02-12T17:24:06;31.08;;;15.80;;
77158;SDS011;66129;45.890;13.714;2023-02-12T17:26:35;21.83;;;11.65;;
77158;SDS011;66129;45.890;13.714;2023-02-12T17:29:00;28.02;;;14.65;;
77158;SDS011;66129;45.890;13.714;2023-02-12T17:31:30;22.67;;;11.07;;
77158;SDS011;66129;45.890;13.714;2023-02-12T17:33:56;19.52;;;9.98;;
77158;SDS011;66129;45.890;13.714;2023-02-12T17:36:24;17.75;;;9.65;;
77158;SDS011;66129;45.890;13.714;2023-02-12T17:38:53;19.73;;;10.63;;
77158;SDS011;66129;45.890;13.714;2023-02-12T17:44:00;20.00;;;10.48;;
77158;SDS011;66129;45.890;13.714;2023-02-12T17:46:27;17.95;;;9.65;;
77158;SDS011;66129;45.890;13.714;2023-02-12T17:48:53;20.52;;;11.05;;
77158;SDS011;66129;45.890;13.714;2023-02-12T17:51:22;17.88;;;9.77;;
77158;SDS011;66129;45.890;13.714;2023-02-12T17:53:48;16.83;;;9.40;;
77158;SDS011;66129;45.890;13.714;2023-02-12T17:56:22;18.98;;;10.07;;
77158;SDS011;66129;45.890;13.714;2023-02-12T17:58:49;19.95;;;11.20;;
77158;SDS011;66129;45.890;13.714;2023-02-12T18:01:16;16.67;;;8.30;;
77158;SDS011;66129;45.890;13.714;2023-02-12T18:03:43;15.88;;;7.22;;
77158;SDS011;66129;45.890;13.714;2023-02-12T18:06:10;12.85;;;7.65;;
77158;SDS011;66129;45.890;13.714;2023-02-12T18:08:40;18.17;;;9.82;;
77158;SDS011;66129;45.890;13.714;2023-02-12T18:11:10;17.58;;;9.80;;
77158;SDS011;66129;45.890;13.714;2023-02-12T18:13:46;19.35;;;10.60;;
77158;SDS011;66129;45.890;13.714;2023-02-12T18:16:16;20.20;;;9.43;;
77158;SDS011;66129;45.890;13.714;2023-02-12T18:18:41;14.70;;;8.15;;
77158;SDS011;66129;45.890;13.714;2023-02-12T18:21:11;12.63;;;7.75;;
77158;SDS011;66129;45.890;13.714;2023-02-12T18:23:46;12.98;;;7.57;;
77158;SDS011;66129;45.890;13.714;2023-02-12T18:26:15;16.08;;;7.78;;
77158;SDS011;66129;45.890;13.714;2023-02-12T18:28:43;16.10;;;8.32;;
77158;SDS011;66129;45.890;13.714;2023-02-12T18:31:20;14.27;;;8.45;;
77158;SDS011;66129;45.890;13.714;2023-02-12T18:33:46;18.10;;;9.15;;
77158;SDS011;66129;45.890;13.714;2023-02-12T18:36:12;14.27;;;8.77;;
77158;SDS011;66129;45.890;13.714;2023-02-12T18:38:40;14.77;;;8.40;;
77158;SDS011;66129;45.890;13.714;2023-02-12T18:41:07;15.93;;;8.68;;
77158;SDS011;66129;45.890;13.714;2023-02-12T18:43:34;12.77;;;7.70;;
77158;SDS011;66129;45.890;13.714;2023-02-12T18:48:54;12.10;;;7.72;;
77158;SDS011;66129;45.890;13.714;2023-02-12T18:51:24;14.48;;;6.70;;
77158;SDS011;66129;45.890;13.714;2023-02-12T18:53:59;12.05;;;7.32;;
77158;SDS011;66129;45.890;13.714;2023-02-12T18:56:28;10.82;;;7.45;;
77158;SDS011;66129;45.890;13.714;2023-02-12T18:58:59;15.63;;;8.75;;
77158;SDS011;66129;45.890;13.714;2023-02-12T19:01:28;11.85;;;7.60;;
77158;SDS011;66129;45.890;13.714;2023-02-12T19:03:54;16.60;;;8.27;;
77158;SDS011;66129;45.890;13.714;2023-02-12T19:06:22;14.13;;;9.18;;
77158;SDS011;66129;45.890;13.714;2023-02-12T19:08:52;14.30;;;7.22;;
77158;SDS011;66129;45.890;13.714;2023-02-12T19:11:21;32.08;;;14.90;;
77158;SDS011;66129;45.890;13.714;2023-02-12T19:13:50;21.83;;;11.23;;
77158;SDS011;66129;45.890;13.714;2023-02-12T19:16:16;19.60;;;9.75;;
77158;SDS011;66129;45.890;13.714;2023-02-12T19:18:43;30.15;;;16.52;;
77158;SDS011;66129;45.890;13.714;2023-02-12T19:21:12;24.13;;;14.18;;
77158;SDS011;66129;45.890;13.714;2023-02-12T19:23:43;32.05;;;16.15;;
77158;SDS011;66129;45.890;13.714;2023-02-12T19:26:09;46.17;;;22.58;;
77158;SDS011;66129;45.890;13.714;2023-02-12T19:28:37;37.97;;;19.20;;
77158;SDS011;66129;45.890;13.714;2023-02-12T19:31:16;27.98;;;16.55;;
77158;SDS011;66129;45.890;13.714;2023-02-12T19:33:56;37.65;;;20.13;;
77158;SDS011;66129;45.890;13.714;2023-02-12T19:36:24;40.08;;;19.77;;
77158;SDS011;66129;45.890;13.714;2023-02-12T19:38:51;28.33;;;15.27;;